Time;durP1;ratioP1;P1;durP2;ratioP2;P2;SDS_P1;SDS_P2;PMS_P1;PMS_P2;Temp;Humidity;BMP_temperature;BMP_pressure;BME280_temperature;BME280_humidity;BME280_pressure;Samples;Min_cycle;Max_cycle;Signal;HPM_P1;HPM_P2
2023/05/29 00:00:22;;;;;;;4.03;2.00;;;17.60;62.70;;;;;;5117237;27;20053;-82
2023/05/29 00:02:50;;;;;;;2.92;2.33;;;17.60;62.50;;;;;;5116274;27;20058;-82
2023/05/29 00:05:17;;;;;;;6.25;2.63;;;17.60;62.70;;;;;;5116225;27;20031;-82
2023/05/29 00:07:43;;;;;;;5.47;2.80;;;17.60;63.70;;;;;;5116901;27;20027;-82
2023/05/29 00:10:11;;;;;;;4.15;2.20;;;17.50;63.30;;;;;;5098119;27;20036;-82
2023/05/29 00:12:37;;;;;;;4.78;2.25;;;17.50;63.30;;;;;;5117878;27;20035;-82
2023/05/29 00:15:04;;;;;;;2.78;2.00;;;17.50;63.40;;;;;;5116924;27;20027;-82
2023/05/29 00:17:34;;;;;;;3.38;2.50;;;17.50;63.50;;;;;;5097316;27;20055;-80
2023/05/29 00:20:03;;;;;;;4.30;2.00;;;17.50;63.30;;;;;;5115419;27;20077;-80
2023/05/29 00:22:29;;;;;;;4.93;2.22;;;17.50;63.10;;;;;;5116990;27;20126;-80
2023/05/29 00:24:55;;;;;;;3.38;2.22;;;17.40;63.20;;;;;;5131629;27;20031;-80
2023/05/29 00:27:21;;;;;;;3.97;2.20;;;17.40;62.90;;;;;;5115650;27;20157;-81
2023/05/29 00:29:47;;;;;;;3.65;2.13;;;17.40;62.90;;;;;;5097889;27;20101;-79
2023/05/29 00:34:57;;;;;;;3.88;1.83;;;17.40;62.90;;;;;;5116535;27;20061;-80
2023/05/29 00:37:24;;;;;;;4.25;2.28;;;17.30;62.80;;;;;;5117693;27;20458;-80
2023/05/29 00:39:50;;;;;;;5.13;1.90;;;17.40;62.90;;;;;;5097680;27;20061;-80
2023/05/29 00:42:16;;;;;;;3.38;2.22;;;17.30;62.80;;;;;;5117372;27;20032;-80
2023/05/29 00:44:42;;;;;;;4.50;2.20;;;17.30;62.90;;;;;;5116016;27;20034;-80
2023/05/29 00:47:08;;;;;;;4.40;2.20;;;17.30;62.90;;;;;;5096812;27;20656;-80
2023/05/29 00:49:36;;;;;;;3.63;2.10;;;17.30;63.00;;;;;;5101394;27;20049;-80
2023/05/29 00:52:06;;;;;;;5.85;2.30;;;17.30;63.20;;;;;;5116152;27;20066;-80
2023/05/29 00:54:33;;;;;;;4.45;2.08;;;17.30;63.30;;;;;;5096950;28;20031;-80
2023/05/29 00:57:01;;;;;;;6.53;2.28;;;17.20;63.40;;;;;;5115834;27;20162;-80
2023/05/29 00:59:29;;;;;;;6.80;2.08;;;17.20;63.60;;;;;;5115084;27;20129;-80
2023/05/29 01:01:57;;;;;;;4.50;2.28;;;17.20;63.60;;;;;;5115842;27;20405;-80
2023/05/29 01:04:25;;;;;;;4.97;2.20;;;17.20;63.40;;;;;;5116128;27;20035;-80
2023/05/29 01:06:51;;;;;;;5.15;2.40;;;17.20;63.40;;;;;;5115486;27;20513;-80
2023/05/29 01:09:17;;;;;;;4.65;2.13;;;17.20;63.10;;;;;;5099010;28;20066;-80
2023/05/29 01:12:08;;;;;;;5.50;2.20;;;17.20;63.10;;;;;;5133325;27;20055;-79
2023/05/29 01:14:48;;;;;;;2.65;2.00;;;17.20;63.00;;;;;;5098407;28;20672;-79
2023/05/29 01:17:33;;;;;;;3.05;1.90;;;17.20;63.10;;;;;;5101888;28;20341;-80
2023/05/29 01:23:14;;;;;;;7.05;2.40;;;17.20;63.40;;;;;;5096684;27;20101;-80
2023/05/29 01:26:40;;;;;;;4.88;2.10;;;17.10;63.20;;;;;;5097136;27;20430;-79
2023/05/29 01:29:10;;;;;;;6.97;2.33;;;17.10;63.30;;;;;;5025517;28;20042;-80
2023/05/29 01:31:38;;;;;;;2.05;1.83;;;17.10;63.70;;;;;;4992520;28;20065;-80
2023/05/29 01:34:04;;;;;;;3.10;1.90;;;17.20;64.00;;;;;;5010062;28;20088;-81
2023/05/29 01:36:32;;;;;;;3.88;2.10;;;17.20;63.80;;;;;;5007811;28;20033;-80
2023/05/29 01:39:00;;;;;;;5.80;2.15;;;17.20;63.70;;;;;;4991106;28;20034;-80
2023/05/29 01:41:26;;;;;;;2.47;1.77;;;17.10;64.20;;;;;;5008223;28;20127;-81
2023/05/29 01:43:54;;;;;;;4.90;2.35;;;17.10;64.10;;;;;;5007918;28;20038;-80
2023/05/29 01:46:41;;;;;;;4.05;2.30;;;17.10;64.30;;;;;;4993467;28;20042;-79
2023/05/29 01:49:09;;;;;;;3.88;1.92;;;17.10;64.20;;;;;;5025015;28;20108;-79
2023/05/29 01:51:35;;;;;;;4.18;2.15;;;17.10;63.80;;;;;;4991203;28;20045;-77
2023/05/29 01:54:01;;;;;;;3.13;1.92;;;17.10;63.60;;;;;;5023839;28;20030;-78
2023/05/29 01:56:28;;;;;;;2.30;2.10;;;17.10;63.30;;;;;;4991815;28;20039;-78
2023/05/29 01:58:56;;;;;;;3.53;2.22;;;17.10;63.10;;;;;;5030362;28;21868;-78
2023/05/29 02:01:23;;;;;;;2.67;1.92;;;17.10;62.90;;;;;;5098482;28;20108;-78
2023/05/29 02:03:49;;;;;;;4.60;2.40;;;17.10;63.00;;;;;;5085801;28;20031;-79
2023/05/29 02:06:16;;;;;;;5.25;2.60;;;17.10;63.50;;;;;;5095468;28;20028;-78
2023/05/29 02:08:53;;;;;;;5.25;2.17;;;17.10;63.50;;;;;;5095450;28;20624;-79
2023/05/29 02:11:20;;;;;;;3.22;2.05;;;17.10;63.30;;;;;;5085772;27;20039;-80
2023/05/29 02:13:46;;;;;;;4.70;2.22;;;17.10;63.50;;;;;;5097611;27;20024;-81
2023/05/29 02:16:12;;;;;;;2.63;2.00;;;17.10;63.30;;;;;;5098483;27;20035;-80
2023/05/29 02:18:39;;;;;;;4.55;2.30;;;17.10;63.30;;;;;;5100238;27;20035;-79
2023/05/29 02:21:06;;;;;;;3.67;1.98;;;17.10;63.10;;;;;;5101202;27;20099;-79
2023/05/29 02:23:32;;;;;;;4.78;2.10;;;17.20;63.40;;;;;;5099922;27;20031;-79
2023/05/29 02:25:58;;;;;;;3.00;2.20;;;17.30;64.10;;;;;;5118388;27;20039;-79
2023/05/29 02:28:24;;;;;;;2.63;2.22;;;17.40;63.90;;;;;;5100792;27;20054;-80
2023/05/29 02:30:50;;;;;;;3.25;2.08;;;17.40;63.70;;;;;;5118200;27;20028;-80
2023/05/29 02:33:16;;;;;;;3.22;2.05;;;17.70;63.80;;;;;;5098987;27;20031;-80
2023/05/29 02:35:42;;;;;;;4.78;1.83;;;17.70;64.00;;;;;;5118226;27;20058;-80
2023/05/29 02:38:08;;;;;;;2.95;1.70;;;17.80;63.20;;;;;;5100668;27;20046;-78
2023/05/29 02:40:34;;;;;;;2.20;1.70;;;17.90;63.10;;;;;;5118686;27;20502;-79
2023/05/29 02:43:00;;;;;;;2.25;2.05;;;18.00;63.40;;;;;;5075986;27;20063;-80
2023/05/29 02:45:26;;;;;;;4.50;2.17;;;18.10;62.90;;;;;;5100600;27;20035;-80
2023/05/29 02:47:53;;;;;;;2.30;1.90;;;18.20;62.80;;;;;;5059390;27;20038;-79
2023/05/29 02:53:04;;;;;;;2.63;2.08;;;18.40;62.40;;;;;;5117944;27;20036;-81
2023/05/29 02:55:32;;;;;;;5.05;1.83;;;18.60;62.30;;;;;;5118102;27;20569;-80
2023/05/29 02:57:59;;;;;;;4.60;2.25;;;18.70;61.90;;;;;;5116435;27;20039;-79
2023/05/29 03:00:25;;;;;;;2.88;2.00;;;18.70;61.40;;;;;;5100811;27;20036;-80
2023/05/29 03:02:52;;;;;;;5.03;1.90;;;18.80;61.00;;;;;;5099273;27;20043;-79
2023/05/29 03:05:18;;;;;;;4.45;2.15;;;18.80;60.50;;;;;;5081804;27;20498;-79
2023/05/29 03:07:44;;;;;;;3.15;2.10;;;18.80;60.20;;;;;;5115758;27;20097;-80
2023/05/29 03:10:10;;;;;;;3.58;1.88;;;18.80;60.30;;;;;;5082725;27;20123;-81
2023/05/29 03:12:36;;;;;;;2.17;1.98;;;18.80;60.10;;;;;;5064752;27;20138;-80
2023/05/29 03:15:02;;;;;;;4.55;1.90;;;18.80;59.80;;;;;;5133550;27;20137;-80
2023/05/29 03:17:28;;;;;;;3.15;2.00;;;18.80;59.80;;;;;;5098416;27;20040;-80
2023/05/29 03:19:55;;;;;;;4.47;2.10;;;18.80;59.70;;;;;;5082930;27;20045;-81
2023/05/29 03:22:21;;;;;;;4.75;2.05;;;18.80;59.70;;;;;;5100476;27;20462;-80
2023/05/29 03:24:47;;;;;;;3.95;2.03;;;18.80;59.70;;;;;;5117310;27;20032;-80
2023/05/29 03:27:13;;;;;;;5.63;1.90;;;18.80;59.80;;;;;;5074734;27;20034;-81
2023/05/29 03:29:40;;;;;;;2.47;1.80;;;18.90;59.90;;;;;;5098237;27;20498;-81
2023/05/29 03:32:07;;;;;;;3.58;2.03;;;19.00;59.80;;;;;;5098979;27;20036;-81
2023/05/29 03:34:34;;;;;;;3.72;1.80;;;19.20;60.00;;;;;;5098384;27;20118;-81
2023/05/29 03:37:03;;;;;;;2.85;1.70;;;19.30;60.10;;;;;;5099080;27;20031;-78
2023/05/29 03:39:29;;;;;;;1.40;1.27;;;19.40;61.30;;;;;;5086772;27;20032;-78
2023/05/29 03:41:58;;;;;;;1.88;1.55;;;19.60;62.30;;;;;;5097581;27;20459;-80
2023/05/29 03:44:24;;;;;;;3.22;1.65;;;19.80;63.40;;;;;;5098651;27;20645;-79
2023/05/29 03:46:51;;;;;;;5.32;1.70;;;19.90;64.40;;;;;;5097983;27;20437;-80
2023/05/29 03:49:17;;;;;;;3.42;1.50;;;20.10;64.50;;;;;;5115459;27;20035;-81
2023/05/29 03:51:43;;;;;;;2.65;1.52;;;20.20;64.40;;;;;;5082672;27;20024;-80
2023/05/29 03:54:10;;;;;;;1.40;1.30;;;20.40;63.90;;;;;;5098056;27;20502;-80
2023/05/29 03:59:24;;;;;;;2.05;1.65;;;20.70;63.10;;;;;;5105550;27;20392;-80
2023/05/29 04:01:51;;;;;;;4.30;1.67;;;20.80;62.80;;;;;;5098070;27;20043;-79
2023/05/29 04:04:17;;;;;;;5.80;1.60;;;21.00;62.50;;;;;;5116607;27;20516;-77
2023/05/29 04:06:44;;;;;;;3.08;1.50;;;21.10;62.60;;;;;;5098015;27;20027;-77
2023/05/29 04:09:11;;;;;;;1.20;1.10;;;21.20;61.60;;;;;;5100634;27;20038;-77
2023/05/29 04:11:38;;;;;;;2.33;1.58;;;21.40;61.40;;;;;;5097749;27;20055;-77
2023/05/29 04:14:04;;;;;;;3.05;1.30;;;21.40;61.10;;;;;;5098334;27;20035;-77
2023/05/29 04:16:30;;;;;;;1.60;1.50;;;21.50;60.80;;;;;;5064114;27;20024;-78
2023/05/29 04:18:56;;;;;;;2.13;1.38;;;21.70;60.60;;;;;;5096247;27;20513;-81
2023/05/29 04:21:26;;;;;;;3.58;1.13;;;21.80;60.50;;;;;;5097479;27;20055;-81
2023/05/29 04:23:53;;;;;;;2.40;1.30;;;21.90;60.60;;;;;;5062331;27;20043;-80
2023/05/29 04:29:07;;;;;;;3.42;1.38;;;22.10;60.50;;;;;;5095556;27;20577;-79
2023/05/29 04:31:33;;;;;;;1.58;1.35;;;22.30;60.60;;;;;;5093693;27;20059;-81
2023/05/29 04:34:00;;;;;;;2.53;1.10;;;22.40;60.10;;;;;;5111559;27;20204;-81
2023/05/29 04:36:28;;;;;;;1.92;1.20;;;22.50;60.00;;;;;;5094097;27;20031;-80
2023/05/29 04:39:13;;;;;;;1.30;1.20;;;22.60;60.00;;;;;;5109772;27;20040;-81
2023/05/29 04:41:40;;;;;;;1.67;1.17;;;22.80;60.30;;;;;;5092528;27;20114;-79
2023/05/29 04:44:11;;;;;;;5.53;1.38;;;22.90;60.00;;;;;;5097407;28;20124;-81
2023/05/29 04:46:44;;;;;;;2.28;1.40;;;23.00;59.90;;;;;;5096958;27;20055;-81
2023/05/29 04:49:12;;;;;;;1.55;1.17;;;23.10;59.60;;;;;;5098130;27;20116;-81
2023/05/29 04:51:42;;;;;;;1.30;1.00;;;23.30;59.70;;;;;;5115772;27;20028;-80
2023/05/29 04:54:09;;;;;;;1.08;1.08;;;23.40;59.80;;;;;;5096353;27;20039;-79
2023/05/29 04:56:36;;;;;;;1.10;1.00;;;23.60;60.10;;;;;;5096619;27;20085;-78
2023/05/29 04:59:03;;;;;;;3.17;1.05;;;23.60;59.40;;;;;;5085742;28;20142;-78
2023/05/29 05:01:29;;;;;;;1.60;1.23;;;23.70;59.10;;;;;;5086304;27;20043;-77
2023/05/29 05:03:55;;;;;;;1.40;1.00;;;23.70;58.90;;;;;;5116259;27;20039;-76
2023/05/29 05:06:25;;;;;;;3.47;1.63;;;23.90;59.20;;;;;;5115301;27;20023;-76
2023/05/29 05:08:51;;;;;;;2.40;1.45;;;24.00;58.40;;;;;;5096597;27;20624;-76
2023/05/29 05:11:23;;;;;;;1.85;1.38;;;24.10;58.20;;;;;;5096508;28;20510;-78
2023/05/29 05:13:50;;;;;;;1.55;1.10;;;24.20;58.00;;;;;;5083397;27;20039;-76
2023/05/29 05:16:18;;;;;;;2.55;1.50;;;24.30;57.60;;;;;;5095796;28;20509;-76
2023/05/29 05:18:44;;;;;;;3.22;1.30;;;24.40;57.50;;;;;;5129798;27;20063;-76
2023/05/29 05:21:10;;;;;;;3.15;1.20;;;24.50;57.30;;;;;;5096618;28;20066;-75
2023/05/29 05:23:37;;;;;;;2.95;1.05;;;24.50;57.10;;;;;;5096496;28;20046;-77
2023/05/29 05:26:03;;;;;;;2.53;1.52;;;24.60;57.00;;;;;;5131452;27;20515;-78
2023/05/29 05:28:30;;;;;;;1.67;1.50;;;24.70;56.80;;;;;;5095462;28;20073;-78
2023/05/29 05:30:56;;;;;;;6.13;1.60;;;24.80;56.60;;;;;;5095355;28;20059;-79
2023/05/29 05:33:23;;;;;;;2.95;1.40;;;24.80;56.50;;;;;;5085428;28;20565;-83
2023/05/29 05:35:49;;;;;;;1.63;1.30;;;24.90;46.80;;;;;;5115163;27;20068;-84
2023/05/29 05:38:15;;;;;;;3.28;1.20;;;24.90;47.00;;;;;;5115573;27;20078;-82
2023/05/29 05:40:44;;;;;;;1.63;1.00;;;24.90;42.00;;;;;;5103419;27;20470;-80
2023/05/29 05:43:15;;;;;;;6.05;1.02;;;25.00;42.60;;;;;;5101552;28;20055;-79
2023/05/29 05:46:05;;;;;;;3.58;1.13;;;25.10;41.70;;;;;;5107020;28;20130;-81
2023/05/29 05:48:32;;;;;;;2.70;1.15;;;25.00;41.90;;;;;;5096568;28;20066;-81
2023/05/29 05:50:58;;;;;;;3.85;0.90;;;25.20;42.60;;;;;;5097609;27;20035;-78
2023/05/29 05:53:24;;;;;;;2.95;1.20;;;25.20;42.70;;;;;;5100771;27;20401;-80
2023/05/29 05:55:51;;;;;;;4.63;1.20;;;25.40;42.20;;;;;;5100488;27;20042;-82
2023/05/29 05:58:17;;;;;;;1.80;1.08;;;25.50;42.20;;;;;;5100640;27;20119;-79
2023/05/29 06:00:44;;;;;;;2.42;1.20;;;25.60;43.20;;;;;;5100768;27;20632;-81
2023/05/29 06:03:10;;;;;;;2.95;0.98;;;25.70;42.30;;;;;;5102175;27;20043;-81
2023/05/29 06:05:58;;;;;;;2.33;1.10;;;25.50;40.60;;;;;;5118809;27;20070;-81
2023/05/29 06:08:24;;;;;;;3.25;0.98;;;25.60;39.70;;;;;;5119842;27;20035;-82
2023/05/29 06:10:52;;;;;;;5.30;1.35;;;25.60;40.30;;;;;;5116446;27;20027;-82
2023/05/29 06:13:18;;;;;;;4.28;1.35;;;25.70;40.50;;;;;;5100632;27;20047;-81
2023/05/29 06:15:51;;;;;;;2.53;0.93;;;25.80;40.60;;;;;;5085025;27;20458;-81
2023/05/29 06:18:17;;;;;;;2.15;1.27;;;25.60;39.30;;;;;;5099371;27;20509;-82
2023/05/29 06:20:44;;;;;;;2.15;1.13;;;25.70;40.30;;;;;;5118732;27;20036;-79
2023/05/29 06:23:10;;;;;;;2.10;0.90;;;25.80;39.40;;;;;;5084821;27;20027;-79
2023/05/29 06:25:38;;;;;;;2.33;1.20;;;25.80;41.60;;;;;;5099502;27;20023;-79
2023/05/29 06:28:08;;;;;;;2.53;1.00;;;25.90;39.90;;;;;;5100530;27;20451;-81
2023/05/29 06:30:34;;;;;;;2.58;1.02;;;25.90;37.60;;;;;;5118630;27;20041;-84
2023/05/29 06:33:05;;;;;;;2.35;1.23;;;25.80;37.90;;;;;;5099887;27;20085;-80
2023/05/29 06:35:31;;;;;;;4.70;0.93;;;25.80;36.90;;;;;;5100395;27;20032;-80
2023/05/29 06:37:57;;;;;;;2.92;1.10;;;25.80;38.20;;;;;;5133515;27;20060;-79
2023/05/29 06:40:23;;;;;;;2.80;1.10;;;25.80;38.10;;;;;;5104159;27;20034;-80
2023/05/29 06:42:49;;;;;;;5.03;1.25;;;25.90;38.60;;;;;;5086096;27;20040;-79
2023/05/29 06:45:15;;;;;;;4.50;1.42;;;26.00;38.00;;;;;;5099635;27;20079;-80
2023/05/29 06:47:45;;;;;;;3.33;0.90;;;25.90;37.20;;;;;;5099441;27;20362;-79
2023/05/29 06:50:11;;;;;;;4.95;0.93;;;26.00;38.70;;;;;;5117469;27;20032;-79
2023/05/29 06:52:37;;;;;;;2.03;0.90;;;26.00;37.80;;;;;;5116158;27;20043;-80
2023/05/29 06:55:15;;;;;;;0.85;0.70;;;26.00;38.30;;;;;;5118132;27;20079;-78
2023/05/29 06:57:42;;;;;;;2.13;0.70;;;26.00;37.30;;;;;;5099712;27;20027;-80
2023/05/29 07:00:10;;;;;;;1.38;0.88;;;26.00;36.10;;;;;;5082741;27;20036;-84
2023/05/29 07:02:41;;;;;;;3.92;0.70;;;25.90;38.70;;;;;;5097966;27;20035;-79
2023/05/29 07:05:07;;;;;;;1.38;0.90;;;25.90;38.40;;;;;;5099436;27;20136;-80
2023/05/29 07:07:34;;;;;;;1.35;0.70;;;26.00;38.40;;;;;;5127027;27;20031;-79
2023/05/29 07:10:01;;;;;;;3.53;1.08;;;26.10;38.50;;;;;;5083620;27;20027;-79
2023/05/29 07:12:27;;;;;;;2.00;0.90;;;26.10;38.60;;;;;;5091249;27;20043;-79
2023/05/29 07:14:53;;;;;;;4.53;1.30;;;26.00;37.10;;;;;;5095623;27;20089;-79
2023/05/29 07:17:19;;;;;;;5.47;0.98;;;26.10;37.80;;;;;;5096401;27;20035;-79
2023/05/29 07:19:49;;;;;;;3.33;0.90;;;26.10;37.80;;;;;;5097359;27;20056;-78
2023/05/29 07:22:16;;;;;;;1.88;1.10;;;26.10;36.90;;;;;;5100900;27;20051;-81
2023/05/29 07:24:42;;;;;;;2.78;0.98;;;26.00;37.10;;;;;;5088711;27;20035;-81
2023/05/29 07:27:08;;;;;;;3.70;0.88;;;26.10;37.90;;;;;;5097865;27;20510;-82
2023/05/29 07:29:35;;;;;;;3.72;0.90;;;26.10;37.30;;;;;;5116888;27;20103;-82
2023/05/29 07:32:01;;;;;;;1.77;0.95;;;26.10;37.10;;;;;;5099650;27;20068;-83
2023/05/29 07:34:27;;;;;;;4.35;0.90;;;26.10;36.90;;;;;;5084594;27;20040;-85
2023/05/29 07:37:06;;;;;;;1.83;0.73;;;25.90;36.70;;;;;;5098311;27;20084;-81
2023/05/29 07:39:35;;;;;;;1.70;0.70;;;25.90;36.40;;;;;;5095736;27;20092;-82
2023/05/29 07:42:08;;;;;;;1.13;0.70;;;25.80;36.70;;;;;;5096015;27;20038;-82
2023/05/29 07:44:37;;;;;;;1.70;0.73;;;25.80;36.40;;;;;;5100335;27;20035;-84
2023/05/29 07:47:03;;;;;;;0.65;0.65;;;25.70;35.50;;;;;;5099405;27;20042;-85
2023/05/29 07:49:40;;;;;;;3.20;1.02;;;25.80;36.50;;;;;;5098892;27;20048;-86
2023/05/29 07:52:07;;;;;;;1.23;0.80;;;25.70;35.20;;;;;;5099238;27;20050;-83
2023/05/29 07:54:34;;;;;;;1.45;0.90;;;25.60;36.80;;;;;;5105117;27;20027;-80
2023/05/29 07:57:02;;;;;;;4.15;1.00;;;25.60;36.40;;;;;;5078194;27;20606;-81
2023/05/29 07:59:31;;;;;;;1.42;0.93;;;25.60;37.00;;;;;;5116312;27;20032;-84
2023/05/29 08:02:02;;;;;;;1.83;1.13;;;25.50;35.10;;;;;;5088740;27;20039;-84
2023/05/29 08:04:43;;;;;;;1.40;0.82;;;25.40;36.30;;;;;;5113713;27;20524;-84
2023/05/29 08:07:09;;;;;;;1.05;0.80;;;25.40;37.60;;;;;;5111704;27;20075;-88
2023/05/29 08:09:36;;;;;;;2.30;0.88;;;25.40;36.30;;;;;;5097710;27;20050;-84
2023/05/29 08:12:02;;;;;;;4.22;0.80;;;25.30;35.30;;;;;;5114827;27;20142;-84
2023/05/29 08:14:29;;;;;;;3.38;0.82;;;25.30;36.10;;;;;;5115509;27;20031;-81
2023/05/29 08:16:55;;;;;;;1.50;0.68;;;25.30;36.80;;;;;;5106256;27;20091;-79
2023/05/29 08:19:22;;;;;;;1.85;0.90;;;25.40;35.80;;;;;;5116016;27;20046;-80
2023/05/29 08:21:47;;;;;;;2.83;0.90;;;25.30;34.90;;;;;;5117385;27;20062;-81
2023/05/29 08:24:14;;;;;;;2.55;1.10;;;25.20;36.70;;;;;;5116404;27;20055;-77
2023/05/29 08:26:40;;;;;;;1.55;0.80;;;25.10;35.60;;;;;;5116921;27;20043;-77
2023/05/29 08:29:06;;;;;;;1.15;0.73;;;25.10;36.70;;;;;;5114650;27;20515;-80
2023/05/29 08:31:32;;;;;;;3.40;0.90;;;25.00;36.00;;;;;;5115273;27;20125;-77
2023/05/29 08:33:58;;;;;;;3.55;1.35;;;25.00;36.10;;;;;;5114688;27;20115;-79
2023/05/29 08:36:25;;;;;;;2.45;1.25;;;24.90;36.90;;;;;;5114473;27;20147;-77
2023/05/29 08:38:51;;;;;;;2.78;1.00;;;24.80;35.70;;;;;;5112997;27;20068;-76
2023/05/29 08:41:51;;;;;;;1.40;0.88;;;24.70;36.20;;;;;;5114102;27;20576;-75
2023/05/29 08:44:22;;;;;;;4.22;1.02;;;24.70;37.60;;;;;;5085281;27;20032;-78
2023/05/29 08:46:55;;;;;;;1.83;1.00;;;24.80;37.80;;;;;;5115489;27;20035;-76
2023/05/29 08:49:25;;;;;;;1.30;0.75;;;24.80;37.80;;;;;;5113476;27;20027;-76
2023/05/29 08:52:02;;;;;;;3.25;0.90;;;24.80;38.40;;;;;;5115675;27;20097;-78
2023/05/29 08:54:32;;;;;;;3.65;0.90;;;24.80;38.00;;;;;;5116237;27;20363;-78
2023/05/29 08:56:59;;;;;;;2.08;0.90;;;24.70;37.70;;;;;;5114298;27;20036;-79
2023/05/29 08:59:26;;;;;;;4.78;1.10;;;24.70;37.80;;;;;;5097193;28;20027;-78
2023/05/29 09:01:52;;;;;;;4.82;1.20;;;24.70;38.10;;;;;;5097024;27;20034;-79
2023/05/29 09:04:18;;;;;;;2.30;0.93;;;24.60;39.10;;;;;;5114932;27;20027;-79
2023/05/29 09:06:46;;;;;;;2.22;0.88;;;24.70;38.30;;;;;;5081084;28;20028;-78
2023/05/29 09:09:12;;;;;;;4.03;1.15;;;24.60;38.50;;;;;;5115402;27;20785;-78
2023/05/29 09:11:38;;;;;;;2.17;1.17;;;24.50;38.70;;;;;;5114984;27;20122;-78
2023/05/29 09:14:04;;;;;;;3.67;1.00;;;24.50;38.60;;;;;;5116975;27;20027;-77
2023/05/29 09:16:30;;;;;;;3.00;0.98;;;24.50;39.10;;;;;;5126323;28;20036;-77
2023/05/29 09:19:09;;;;;;;6.75;1.23;;;24.50;39.20;;;;;;5100332;28;20091;-78
2023/05/29 09:21:36;;;;;;;4.07;1.08;;;24.50;37.80;;;;;;5115858;27;20095;-77
2023/05/29 09:24:05;;;;;;;1.83;0.80;;;24.40;39.00;;;;;;5085520;28;20843;-77
2023/05/29 09:26:32;;;;;;;3.30;1.10;;;24.40;36.80;;;;;;5099968;27;20039;-78
2023/05/29 09:28:58;;;;;;;1.15;1.05;;;24.30;36.60;;;;;;5118028;27;20236;-77
2023/05/29 09:31:24;;;;;;;3.05;1.00;;;24.20;38.60;;;;;;5119903;27;20031;-77
2023/05/29 09:33:51;;;;;;;3.35;0.90;;;24.20;38.70;;;;;;5100219;27;20391;-77
2023/05/29 09:36:22;;;;;;;2.58;1.20;;;24.20;38.50;;;;;;5101537;27;21526;-78
2023/05/29 09:38:48;;;;;;;3.00;1.15;;;24.10;38.50;;;;;;5099702;27;20035;-78
2023/05/29 09:41:20;;;;;;;3.13;0.90;;;24.10;38.60;;;;;;5121053;27;20051;-78
2023/05/29 09:43:46;;;;;;;2.20;0.80;;;24.00;37.20;;;;;;5119489;27;20035;-77
2023/05/29 09:46:17;;;;;;;4.05;1.05;;;24.00;37.70;;;;;;5118655;27;20630;-77
2023/05/29 09:48:44;;;;;;;5.97;1.00;;;24.00;38.40;;;;;;5101722;27;20130;-78
2023/05/29 09:51:21;;;;;;;2.45;1.33;;;23.90;37.50;;;;;;5119173;27;20036;-78
2023/05/29 09:53:48;;;;;;;5.32;1.20;;;23.90;38.00;;;;;;5119168;27;20039;-78
2023/05/29 09:56:17;;;;;;;2.90;1.05;;;23.80;36.80;;;;;;5101580;27;20027;-78
2023/05/29 09:58:45;;;;;;;2.67;1.20;;;23.80;37.70;;;;;;5118434;27;20031;-78
2023/05/29 10:01:13;;;;;;;1.27;1.00;;;23.70;37.10;;;;;;5119417;27;20032;-78
2023/05/29 10:03:39;;;;;;;2.90;0.77;;;23.70;38.10;;;;;;5116963;27;20074;-78
2023/05/29 10:06:08;;;;;;;1.83;1.00;;;23.60;38.70;;;;;;5118658;27;20042;-78
2023/05/29 10:08:45;;;;;;;2.15;1.02;;;23.70;38.30;;;;;;5101368;27;20039;-78
2023/05/29 10:11:15;;;;;;;1.88;1.10;;;23.70;39.20;;;;;;5091273;27;20370;-78
2023/05/29 10:13:48;;;;;;;2.20;1.02;;;23.70;38.40;;;;;;5118071;27;20062;-78
2023/05/29 10:16:15;;;;;;;2.03;1.10;;;23.70;39.40;;;;;;5119533;27;20373;-78
2023/05/29 10:18:49;;;;;;;2.70;1.17;;;23.70;39.00;;;;;;5116682;27;20080;-78
2023/05/29 10:21:16;;;;;;;3.22;1.10;;;23.70;39.30;;;;;;5118472;27;20043;-78
2023/05/29 10:23:50;;;;;;;3.13;0.98;;;23.70;38.90;;;;;;5119981;27;20038;-78
2023/05/29 10:26:25;;;;;;;1.05;1.00;;;23.60;38.50;;;;;;5120407;27;20513;-78
2023/05/29 10:29:11;;;;;;;;;;;23.60;38.60;;;;;;5088085;27;20032;-78
2023/05/29 10:32:04;;;;;;;5.15;1.45;;;23.60;38.70;;;;;;5117925;27;19916;-77
2023/05/29 10:34:45;;;;;;;3.95;1.00;;;23.60;38.90;;;;;;5118012;27;20080;-76
2023/05/29 10:37:30;;;;;;;1.35;0.90;;;23.50;37.70;;;;;;5099674;27;20097;-77
2023/05/29 10:40:12;;;;;;;2.13;0.93;;;23.50;38.10;;;;;;5118997;27;20542;-77
2023/05/29 10:42:46;;;;;;;3.70;1.15;;;23.40;37.00;;;;;;5117858;27;20451;-78
2023/05/29 10:45:35;;;;;;;4.25;1.23;;;23.40;37.00;;;;;;5117488;27;20034;-78
2023/05/29 10:48:10;;;;;;;3.75;1.13;;;23.30;37.30;;;;;;5117220;27;20043;-78
2023/05/29 10:50:38;;;;;;;2.42;1.20;;;23.10;37.30;;;;;;5118056;27;20051;-78
2023/05/29 10:53:07;;;;;;;5.07;1.40;;;23.10;37.70;;;;;;5087353;27;20035;-78
2023/05/29 10:55:40;;;;;;;3.72;1.25;;;23.10;38.10;;;;;;5118239;27;20092;-77
2023/05/29 10:58:13;;;;;;;5.10;1.45;;;23.10;39.40;;;;;;5117920;27;20032;-78
2023/05/29 11:00:42;;;;;;;1.30;0.95;;;23.10;37.70;;;;;;5117033;27;20062;-78
2023/05/29 11:03:10;;;;;;;2.03;1.05;;;23.10;37.90;;;;;;5118649;27;20032;-78
2023/05/29 11:06:10;;;;;;;2.67;1.20;;;23.10;37.50;;;;;;5118401;27;20039;-78
2023/05/29 11:08:58;;;;;;;3.38;0.82;;;23.10;37.70;;;;;;5118022;27;20747;-79
2023/05/29 11:11:35;;;;;;;2.85;1.00;;;23.10;36.80;;;;;;5117688;27;20035;-78
2023/05/29 11:14:04;;;;;;;6.53;1.60;;;23.00;36.30;;;;;;5098770;27;20076;-78
2023/05/29 11:16:30;;;;;;;4.68;2.00;;;23.00;37.60;;;;;;5117493;27;20607;-77
2023/05/29 11:18:58;;;;;;;1.83;1.42;;;23.00;38.50;;;;;;5115031;27;20038;-81
2023/05/29 11:21:34;;;;;;;1.75;1.27;;;23.00;38.20;;;;;;5056775;27;20134;-80
2023/05/29 11:24:07;;;;;;;3.70;0.93;;;23.00;37.60;;;;;;5116149;27;20579;-79
2023/05/29 11:26:37;;;;;;;2.47;1.13;;;23.00;37.10;;;;;;5097735;27;20042;-80
2023/05/29 11:29:10;;;;;;;3.80;1.23;;;23.00;37.30;;;;;;5102820;27;20035;-79
2023/05/29 11:31:38;;;;;;;1.23;1.10;;;22.90;38.30;;;;;;5117788;27;20542;-79
2023/05/29 11:34:05;;;;;;;4.15;1.05;;;23.00;37.90;;;;;;5086854;27;20408;-79
2023/05/29 11:36:32;;;;;;;0.98;0.90;;;22.90;37.80;;;;;;5117499;27;20051;-78
2023/05/29 11:39:00;;;;;;;3.60;0.90;;;22.90;37.80;;;;;;5115785;27;20122;-79
2023/05/29 11:41:26;;;;;;;3.15;1.20;;;22.90;37.50;;;;;;5069080;27;20027;-78
2023/05/29 11:44:03;;;;;;;2.53;1.20;;;22.90;36.30;;;;;;5117347;27;20023;-78
2023/05/29 11:46:32;;;;;;;3.33;1.27;;;22.90;35.80;;;;;;5099140;27;20497;-80
2023/05/29 11:48:59;;;;;;;2.28;1.50;;;22.90;36.80;;;;;;5114755;27;20043;-76
2023/05/29 11:51:25;;;;;;;2.95;1.10;;;22.80;37.90;;;;;;5116992;27;20081;-77
2023/05/29 11:53:57;;;;;;;1.98;1.17;;;22.80;38.50;;;;;;5081296;27;20028;-78
2023/05/29 11:56:25;;;;;;;2.63;1.00;;;22.90;37.20;;;;;;5117094;27;20500;-79
2023/05/29 11:58:56;;;;;;;3.78;1.13;;;22.80;36.70;;;;;;5116339;27;20058;-77
2023/05/29 12:01:26;;;;;;;2.15;1.10;;;22.80;36.10;;;;;;5116806;27;20059;-78
2023/05/29 12:03:52;;;;;;;1.08;0.80;;;22.80;36.10;;;;;;5116504;27;20036;-78
2023/05/29 12:06:36;;;;;;;3.75;1.05;;;22.80;36.50;;;;;;5097597;27;20043;-76
2023/05/29 12:09:04;;;;;;;2.70;1.40;;;22.80;36.40;;;;;;5083807;27;20066;-77
2023/05/29 12:11:30;;;;;;;2.40;1.05;;;22.80;37.60;;;;;;5115468;27;20063;-77
2023/05/29 12:14:00;;;;;;;3.60;0.70;;;22.80;38.60;;;;;;5115674;27;20098;-78
2023/05/29 12:16:28;;;;;;;2.30;1.27;;;22.80;37.40;;;;;;5116625;27;20059;-78
2023/05/29 12:18:55;;;;;;;2.42;1.30;;;22.80;36.60;;;;;;5115888;27;20497;-78
2023/05/29 12:21:22;;;;;;;5.03;0.98;;;22.80;37.10;;;;;;5116560;27;21581;-79
2023/05/29 12:23:51;;;;;;;2.65;1.38;;;22.80;38.40;;;;;;5116253;27;20043;-77
2023/05/29 12:26:17;;;;;;;4.13;1.40;;;22.70;38.80;;;;;;5117346;27;20035;-78
2023/05/29 12:28:45;;;;;;;1.70;1.40;;;22.80;39.20;;;;;;5115686;27;20155;-77
2023/05/29 12:31:11;;;;;;;1.80;1.33;;;22.80;38.10;;;;;;5115540;27;20127;-79
2023/05/29 12:33:43;;;;;;;3.38;1.20;;;22.80;38.20;;;;;;5116443;27;20035;-77
2023/05/29 12:36:12;;;;;;;3.08;1.33;;;22.80;37.80;;;;;;5116658;27;20118;-78
2023/05/29 12:38:48;;;;;;;2.95;1.55;;;22.70;37.20;;;;;;5115211;27;20154;-76
2023/05/29 12:41:26;;;;;;;4.30;1.10;;;22.70;37.90;;;;;;5115948;27;20035;-78
2023/05/29 12:43:55;;;;;;;1.48;1.13;;;22.70;39.00;;;;;;5114396;27;20055;-78
2023/05/29 12:46:21;;;;;;;1.30;1.10;;;22.70;39.50;;;;;;5096668;27;20054;-79
2023/05/29 12:48:47;;;;;;;1.77;1.20;;;22.70;38.30;;;;;;5116027;27;20032;-78
2023/05/29 12:51:13;;;;;;;1.98;1.02;;;22.80;39.30;;;;;;5080532;27;20058;-79
2023/05/29 12:53:39;;;;;;;1.10;1.00;;;22.80;39.90;;;;;;5132247;27;20049;-78
2023/05/29 12:56:06;;;;;;;2.90;1.20;;;22.80;38.80;;;;;;5098418;27;20028;-78
2023/05/29 12:58:31;;;;;;;2.42;1.13;;;22.80;37.90;;;;;;5114280;27;20030;-80
2023/05/29 13:00:57;;;;;;;1.75;1.30;;;22.80;38.10;;;;;;5097237;27;20032;-77
2023/05/29 13:03:23;;;;;;;3.25;1.08;;;22.70;38.40;;;;;;5083947;27;20338;-79
2023/05/29 13:05:50;;;;;;;4.40;1.50;;;22.80;38.30;;;;;;5117101;27;20040;-77
2023/05/29 13:08:17;;;;;;;2.25;1.70;;;22.70;38.30;;;;;;5116147;27;20487;-79
2023/05/29 13:10:45;;;;;;;2.97;0.93;;;22.80;37.30;;;;;;5116506;27;20081;-83